Time;durP1;ratioP1;P1;durP2;ratioP2;P2;SDS_P1;SDS_P2;PMS_P1;PMS_P2;Temp;Humidity;BMP_temperature;BMP_pressure;BME280_temperature;BME280_humidity;BME280_pressure;Samples;Min_cycle;Max_cycle;Signal;HPM_P1;HPM_P2
2023/06/18 00:02:03;;;;;;;19.15;14.00;;;16.60;99.90;;;;;;6248970;22;20011;-81
2023/06/18 00:04:28;;;;;;;14.63;12.38;;;16.60;99.90;;;;;;6249124;22;20012;-81
2023/06/18 00:06:54;;;;;;;15.57;13.35;;;16.50;99.90;;;;;;6249155;22;20026;-81
2023/06/18 00:09:20;;;;;;;16.55;14.77;;;16.50;99.90;;;;;;6249752;22;20011;-81
2023/06/18 00:11:46;;;;;;;17.27;14.90;;;16.40;99.90;;;;;;6248920;22;20011;-81
2023/06/18 00:14:12;;;;;;;17.70;14.82;;;16.20;99.90;;;;;;6249424;22;20090;-82
2023/06/18 00:16:37;;;;;;;20.42;17.02;;;16.30;99.90;;;;;;6248914;22;20446;-82
2023/06/18 00:19:03;;;;;;;19.90;17.27;;;16.20;99.90;;;;;;6248456;22;20011;-82
2023/06/18 00:21:29;;;;;;;18.90;16.25;;;16.20;99.90;;;;;;6248702;22;20050;-81
2023/06/18 00:23:56;;;;;;;17.75;15.60;;;16.20;99.90;;;;;;6249417;22;20012;-80
2023/06/18 00:26:23;;;;;;;19.75;17.45;;;16.20;99.90;;;;;;6248753;22;20011;-81
2023/06/18 00:28:49;;;;;;;21.30;17.50;;;16.10;99.90;;;;;;6274802;22;20008;-81
2023/06/18 00:31:14;;;;;;;22.67;18.52;;;16.10;99.90;;;;;;6248892;22;20050;-81
2023/06/18 00:33:40;;;;;;;25.15;20.83;;;16.10;99.90;;;;;;6274890;22;20050;-81
2023/06/18 00:36:07;;;;;;;14.82;12.15;;;16.00;99.90;;;;;;6249706;22;20012;-81
2023/06/18 00:38:35;;;;;;;13.50;11.93;;;16.00;99.90;;;;;;6274366;22;20078;-81
2023/06/18 00:41:01;;;;;;;14.52;12.70;;;16.00;99.90;;;;;;6223508;22;20026;-82
2023/06/18 00:43:27;;;;;;;13.95;11.60;;;16.00;99.90;;;;;;6248983;22;20012;-82
2023/06/18 00:45:59;;;;;;;13.45;11.45;;;16.00;99.90;;;;;;6247995;22;20376;-82
2023/06/18 00:48:31;;;;;;;18.00;15.30;;;15.90;99.90;;;;;;6248941;22;20406;-82
2023/06/18 00:50:58;;;;;;;17.60;15.25;;;15.90;99.90;;;;;;6274253;22;20054;-82
2023/06/18 00:53:25;;;;;;;25.08;20.55;;;15.90;99.90;;;;;;6251308;22;20057;-82
2023/06/18 00:55:51;;;;;;;26.10;22.05;;;15.90;99.90;;;;;;6276813;22;20495;-78
2023/06/18 00:58:17;;;;;;;29.15;23.77;;;15.70;99.90;;;;;;6276484;22;20023;-82
2023/06/18 01:00:43;;;;;;;26.23;21.70;;;15.60;99.90;;;;;;6275635;22;20016;-81
2023/06/18 01:03:16;;;;;;;30.60;25.65;;;15.50;99.90;;;;;;6249542;22;20012;-82
2023/06/18 01:05:51;;;;;;;28.15;24.70;;;15.50;99.90;;;;;;6249668;22;20047;-82
2023/06/18 01:08:22;;;;;;;30.90;24.75;;;15.50;99.90;;;;;;6250777;22;20023;-82
2023/06/18 01:11:01;;;;;;;30.45;24.48;;;15.30;99.90;;;;;;6250578;22;20025;-83
2023/06/18 01:13:32;;;;;;;25.90;22.33;;;15.40;99.90;;;;;;6251114;22;20064;-82
2023/06/18 01:16:03;;;;;;;26.73;22.40;;;15.40;99.90;;;;;;6275852;22;20011;-82
2023/06/18 01:18:34;;;;;;;29.42;25.13;;;15.40;99.90;;;;;;6276042;22;20245;-83
2023/06/18 01:21:05;;;;;;;30.83;25.75;;;15.40;99.90;;;;;;6250710;22;20018;-82
2023/06/18 01:23:49;;;;;;;28.55;23.38;;;15.30;99.90;;;;;;6250576;22;20346;-82
2023/06/18 01:26:21;;;;;;;29.65;24.58;;;15.20;99.90;;;;;;6250357;22;20385;-82
2023/06/18 01:28:53;;;;;;;28.50;23.55;;;15.20;99.90;;;;;;6250508;22;20022;-83
2023/06/18 01:31:23;;;;;;;31.65;24.65;;;15.10;99.90;;;;;;6276051;22;20345;-81
2023/06/18 01:33:53;;;;;;;29.40;24.38;;;15.10;99.90;;;;;;6275184;22;20043;-82
2023/06/18 01:36:34;;;;;;;31.50;24.33;;;15.10;99.90;;;;;;6250460;22;20007;-82
2023/06/18 01:39:07;;;;;;;29.98;24.55;;;15.00;99.90;;;;;;6250532;22;20015;-81
2023/06/18 01:41:36;;;;;;;25.95;22.10;;;15.00;99.90;;;;;;6275793;22;20015;-81
2023/06/18 01:44:07;;;;;;;19.75;16.35;;;15.10;99.90;;;;;;6249525;22;20327;-81
2023/06/18 01:46:33;;;;;;;21.73;16.77;;;15.20;99.90;;;;;;6250867;22;20023;-82
2023/06/18 01:49:08;;;;;;;22.33;18.58;;;15.20;99.90;;;;;;6248884;22;20503;-83
2023/06/18 01:51:36;;;;;;;26.10;21.27;;;15.10;99.90;;;;;;6250581;22;20087;-83
2023/06/18 01:54:03;;;;;;;25.65;20.58;;;15.00;99.90;;;;;;6250023;22;20086;-83
2023/06/18 01:56:29;;;;;;;26.73;22.45;;;15.00;99.90;;;;;;6250147;22;20007;-83
2023/06/18 01:58:55;;;;;;;26.05;21.85;;;15.00;99.90;;;;;;6224427;22;20015;-83
2023/06/18 02:01:21;;;;;;;25.60;20.85;;;15.00;99.90;;;;;;6250625;22;20007;-82
2023/06/18 02:03:48;;;;;;;27.65;22.92;;;15.00;99.90;;;;;;6274933;22;20097;-83
2023/06/18 02:06:14;;;;;;;25.23;21.25;;;15.00;99.90;;;;;;6275188;22;20023;-82
2023/06/18 02:08:41;;;;;;;21.23;16.80;;;15.00;99.90;;;;;;6275161;22;20008;-83
2023/06/18 02:11:07;;;;;;;15.95;12.07;;;15.10;99.90;;;;;;6250496;22;20019;-82
2023/06/18 02:13:33;;;;;;;12.82;11.05;;;15.10;99.90;;;;;;6249513;22;20004;-82
2023/06/18 02:15:58;;;;;;;13.05;11.75;;;15.00;99.90;;;;;;6250570;22;20384;-83
2023/06/18 02:18:24;;;;;;;13.35;11.55;;;15.00;99.90;;;;;;6249205;22;20011;-83
2023/06/18 02:20:50;;;;;;;11.52;10.05;;;15.00;99.90;;;;;;6248210;22;20066;-83
2023/06/18 02:23:16;;;;;;;11.07;9.88;;;14.90;99.90;;;;;;6249141;22;20066;-84
2023/06/18 02:25:44;;;;;;;11.57;10.23;;;15.00;99.90;;;;;;6275578;22;20012;-83
2023/06/18 02:28:10;;;;;;;10.52;9.43;;;14.90;99.90;;;;;;6249437;22;20029;-83
2023/06/18 02:30:36;;;;;;;9.38;8.38;;;14.80;99.90;;;;;;6275550;22;20039;-84
2023/06/18 02:33:06;;;;;;;9.80;8.77;;;14.80;99.90;;;;;;6326685;22;20043;-83
2023/06/18 02:35:32;;;;;;;9.45;8.45;;;14.80;99.90;;;;;;6250337;22;20007;-82
2023/06/18 02:37:58;;;;;;;10.40;9.23;;;14.70;99.90;;;;;;6249676;22;20035;-83
2023/06/18 02:40:24;;;;;;;9.00;8.10;;;14.70;99.90;;;;;;6275909;22;20015;-81
2023/06/18 02:42:50;;;;;;;9.73;8.27;;;14.60;99.90;;;;;;6249253;22;20090;-83
2023/06/18 02:45:18;;;;;;;9.40;7.75;;;14.50;99.90;;;;;;6275369;22;20018;-83
2023/06/18 02:47:44;;;;;;;11.80;8.35;;;14.40;99.90;;;;;;6275248;22;20043;-82
2023/06/18 02:50:11;;;;;;;12.77;10.50;;;14.30;99.90;;;;;;6249110;22;20438;-83
2023/06/18 02:52:37;;;;;;;14.48;12.10;;;14.20;99.90;;;;;;6274867;22;20003;-82
2023/06/18 02:55:04;;;;;;;16.58;13.85;;;14.20;99.90;;;;;;6249268;22;20104;-82
2023/06/18 02:57:29;;;;;;;9.48;8.48;;;14.20;99.90;;;;;;6249486;22;20464;-82
2023/06/18 02:59:55;;;;;;;8.82;7.65;;;14.20;99.90;;;;;;6274864;22;20020;-82
2023/06/18 03:02:20;;;;;;;10.35;9.20;;;14.20;99.90;;;;;;6249604;22;20488;-82
2023/06/18 03:04:46;;;;;;;10.93;9.52;;;14.20;99.90;;;;;;6249422;22;20015;-82
2023/06/18 03:07:11;;;;;;;11.23;9.15;;;14.20;99.90;;;;;;6275457;22;20019;-82
2023/06/18 03:09:37;;;;;;;13.85;11.43;;;14.00;99.90;;;;;;6326495;22;20015;-82
2023/06/18 03:12:03;;;;;;;19.30;16.10;;;14.00;99.90;;;;;;6274777;22;20008;-82
2023/06/18 03:14:29;;;;;;;21.83;17.33;;;13.90;99.90;;;;;;6274639;22;20008;-81
2023/06/18 03:16:56;;;;;;;32.83;25.67;;;13.90;99.90;;;;;;6274900;22;20058;-82
2023/06/18 03:19:22;;;;;;;32.50;26.10;;;13.90;99.90;;;;;;6249172;22;20086;-82
2023/06/18 03:21:48;;;;;;;33.10;26.30;;;13.90;99.90;;;;;;6274342;22;20011;-82
2023/06/18 03:24:14;;;;;;;37.05;28.25;;;13.90;99.90;;;;;;6275298;22;20012;-82
2023/06/18 03:26:40;;;;;;;37.22;28.55;;;13.80;99.90;;;;;;6249289;22;20015;-82
2023/06/18 03:29:07;;;;;;;35.35;27.77;;;13.80;99.90;;;;;;6274596;22;20322;-81
2023/06/18 03:31:33;;;;;;;36.83;28.50;;;13.80;99.90;;;;;;6248545;22;20011;-82
2023/06/18 03:34:01;;;;;;;36.75;29.58;;;13.80;99.90;;;;;;6249241;22;20022;-81
2023/06/18 03:36:39;;;;;;;37.95;29.27;;;13.80;99.90;;;;;;6274626;22;20015;-81
2023/06/18 03:39:05;;;;;;;39.13;29.80;;;13.80;99.90;;;;;;6249520;22;20011;-82
2023/06/18 03:41:30;;;;;;;38.05;29.75;;;13.80;99.90;;;;;;6274080;22;20022;-81
2023/06/18 03:43:56;;;;;;;43.90;32.42;;;13.80;99.90;;;;;;6248778;22;20077;-81
2023/06/18 03:46:21;;;;;;;39.65;30.50;;;13.80;99.90;;;;;;6274617;22;20011;-81
2023/06/18 03:48:47;;;;;;;40.28;30.20;;;13.80;99.90;;;;;;6249382;22;20003;-82
2023/06/18 03:51:13;;;;;;;38.80;29.92;;;13.80;99.90;;;;;;6248744;22;20012;-81
2023/06/18 03:53:39;;;;;;;37.15;29.73;;;13.80;99.90;;;;;;6248636;22;20050;-81
2023/06/18 03:56:05;;;;;;;40.97;30.45;;;13.90;99.90;;;;;;6249577;22;20008;-82
2023/06/18 03:58:31;;;;;;;35.15;28.55;;;13.90;99.90;;;;;;6248474;22;20011;-82
2023/06/18 04:00:57;;;;;;;39.53;30.20;;;13.90;99.90;;;;;;6248829;22;20008;-82
2023/06/18 04:03:22;;;;;;;41.25;30.05;;;14.00;99.90;;;;;;6274087;22;20050;-82
2023/06/18 04:05:49;;;;;;;44.95;29.25;;;14.10;99.90;;;;;;6249434;22;20088;-81
2023/06/18 04:08:16;;;;;;;39.00;29.30;;;14.10;99.90;;;;;;6248548;22;20019;-81
2023/06/18 04:10:43;;;;;;;37.53;28.10;;;14.10;99.90;;;;;;6273837;22;20012;-81
2023/06/18 04:13:13;;;;;;;44.10;27.73;;;14.10;99.90;;;;;;6249166;22;20095;-81
2023/06/18 04:15:39;;;;;;;33.72;25.85;;;14.10;99.90;;;;;;6274866;22;20333;-82
2023/06/18 04:18:04;;;;;;;44.13;27.67;;;14.10;99.90;;;;;;6273857;22;20095;-81
2023/06/18 04:20:30;;;;;;;36.53;27.15;;;14.10;99.90;;;;;;6248609;22;20019;-82
2023/06/18 04:22:55;;;;;;;33.95;25.13;;;14.10;99.90;;;;;;6274197;22;20027;-81
2023/06/18 04:25:21;;;;;;;30.33;24.58;;;14.20;99.90;;;;;;6249728;22;20023;-82
2023/06/18 04:27:47;;;;;;;39.10;25.73;;;14.20;99.90;;;;;;6276767;22;20014;-81
2023/06/18 04:30:12;;;;;;;31.23;25.70;;;14.20;99.90;;;;;;6275633;22;20016;-81
2023/06/18 04:32:38;;;;;;;32.38;26.33;;;14.30;99.90;;;;;;6250893;22;20008;-82
2023/06/18 04:35:04;;;;;;;34.42;26.83;;;14.30;99.90;;;;;;6276994;22;20008;-81
2023/06/18 04:37:31;;;;;;;30.15;24.33;;;14.30;99.90;;;;;;6251004;22;20446;-81
2023/06/18 04:39:56;;;;;;;35.60;26.92;;;14.40;99.90;;;;;;6276250;22;20455;-80
2023/06/18 04:42:22;;;;;;;30.60;24.58;;;14.20;99.90;;;;;;6274851;22;20020;-82
2023/06/18 04:44:47;;;;;;;28.13;22.92;;;14.40;99.90;;;;;;6251336;22;20544;-81
2023/06/18 04:47:13;;;;;;;28.25;24.45;;;14.50;99.90;;;;;;6276879;22;20086;-81
2023/06/18 04:49:38;;;;;;;28.67;23.73;;;14.60;99.90;;;;;;6249510;22;20015;-81
2023/06/18 04:52:05;;;;;;;30.40;25.08;;;14.60;99.90;;;;;;6276557;22;20438;-81
2023/06/18 04:54:30;;;;;;;27.05;23.02;;;14.60;99.90;;;;;;6276203;22;20039;-81
2023/06/18 04:56:58;;;;;;;29.27;24.20;;;14.70;99.90;;;;;;6251335;22;20034;-81
2023/06/18 04:59:25;;;;;;;29.88;24.52;;;14.80;99.90;;;;;;6250281;22;20016;-81
2023/06/18 05:01:51;;;;;;;28.83;24.05;;;14.80;99.90;;;;;;6250402;22;20012;-81
2023/06/18 05:04:17;;;;;;;28.20;23.00;;;14.80;99.90;;;;;;6250416;22;20026;-82
2023/06/18 05:06:42;;;;;;;31.27;24.15;;;14.80;99.90;;;;;;6250965;22;20016;-81
2023/06/18 05:09:08;;;;;;;30.25;24.75;;;14.80;99.90;;;;;;6250068;22;20098;-81
2023/06/18 05:11:34;;;;;;;29.23;23.88;;;14.80;99.90;;;;;;6250590;22;20491;-82
2023/06/18 05:14:00;;;;;;;28.00;24.10;;;14.70;99.90;;;;;;6276056;22;20007;-82
2023/06/18 05:16:27;;;;;;;31.27;24.45;;;14.80;99.90;;;;;;6251162;22;20094;-82
2023/06/18 05:18:52;;;;;;;27.95;23.77;;;14.90;99.90;;;;;;6274834;22;20007;-81
2023/06/18 05:21:18;;;;;;;26.20;22.98;;;14.90;99.90;;;;;;6250650;22;20346;-82
2023/06/18 05:23:44;;;;;;;24.90;21.42;;;14.90;99.90;;;;;;6249873;22;20020;-81
2023/06/18 05:26:10;;;;;;;24.60;22.00;;;15.10;99.90;;;;;;6276164;22;20408;-82
2023/06/18 05:28:36;;;;;;;25.90;21.92;;;15.10;99.90;;;;;;6275726;22;20054;-81
2023/06/18 05:31:01;;;;;;;27.02;22.88;;;15.20;99.90;;;;;;6275287;22;20450;-81
2023/06/18 05:33:27;;;;;;;24.65;21.98;;;15.30;99.90;;;;;;6250749;22;20442;-82
2023/06/18 05:35:53;;;;;;;24.60;21.17;;;15.30;99.90;;;;;;6275718;22;20053;-81
2023/06/18 05:38:18;;;;;;;27.10;23.73;;;15.40;99.90;;;;;;6249043;22;20341;-81
2023/06/18 05:40:44;;;;;;;24.42;21.70;;;15.60;99.90;;;;;;6274492;22;20012;-82
2023/06/18 05:43:09;;;;;;;27.67;24.15;;;15.50;99.90;;;;;;6276297;22;20012;-81
2023/06/18 05:45:35;;;;;;;24.73;22.08;;;15.60;99.90;;;;;;6275648;22;20453;-81
2023/06/18 05:48:00;;;;;;;26.35;23.58;;;15.70;99.90;;;;;;6248717;22;20047;-81
2023/06/18 05:50:27;;;;;;;26.00;23.20;;;15.80;99.90;;;;;;6276027;22;20061;-81
2023/06/18 05:52:53;;;;;;;25.52;22.13;;;15.70;99.90;;;;;;6271747;22;20079;-84
2023/06/18 05:55:18;;;;;;;25.40;22.67;;;15.90;99.90;;;;;;6250715;22;20099;-79
2023/06/18 05:57:44;;;;;;;22.30;19.40;;;16.00;99.90;;;;;;6273812;22;20007;-79
2023/06/18 06:00:11;;;;;;;22.08;18.10;;;16.10;99.90;;;;;;6224585;22;20516;-78
2023/06/18 06:02:37;;;;;;;25.02;20.00;;;16.20;99.90;;;;;;6241859;22;20015;-79
2023/06/18 06:05:02;;;;;;;22.70;19.33;;;16.40;99.90;;;;;;6265753;22;20458;-79
2023/06/18 06:07:28;;;;;;;23.52;20.38;;;16.50;99.90;;;;;;6237339;22;20026;-79
2023/06/18 06:09:55;;;;;;;23.95;21.08;;;16.60;99.90;;;;;;6266545;22;20507;-78
2023/06/18 06:12:21;;;;;;;22.77;20.33;;;16.80;99.90;;;;;;6266982;22;20018;-78
2023/06/18 06:14:47;;;;;;;25.40;21.63;;;16.80;99.90;;;;;;6263712;22;20496;-79
2023/06/18 06:17:12;;;;;;;25.25;22.10;;;16.90;99.90;;;;;;6265680;22;20047;-78
2023/06/18 06:19:38;;;;;;;24.70;20.50;;;17.00;99.90;;;;;;6275065;22;20018;-79
2023/06/18 06:22:04;;;;;;;24.13;20.77;;;17.00;99.90;;;;;;6241116;22;20058;-80
2023/06/18 06:24:30;;;;;;;25.58;22.75;;;17.20;99.90;;;;;;6266750;22;20516;-79
2023/06/18 06:26:55;;;;;;;22.42;19.75;;;17.40;99.90;;;;;;6243723;22;20014;-80
2023/06/18 06:29:21;;;;;;;24.77;19.70;;;17.40;99.90;;;;;;6266588;22;20015;-79
2023/06/18 06:31:47;;;;;;;25.42;20.48;;;17.70;99.90;;;;;;6260294;22;20499;-80
2023/06/18 06:34:12;;;;;;;24.55;20.40;;;17.90;99.90;;;;;;6235097;22;20008;-79
2023/06/18 06:36:38;;;;;;;25.13;22.10;;;17.80;99.90;;;;;;6234661;22;20145;-79
2023/06/18 06:39:04;;;;;;;24.77;20.63;;;17.80;99.90;;;;;;6260967;22;20035;-79
2023/06/18 06:41:30;;;;;;;25.67;22.40;;;17.90;99.90;;;;;;6264256;22;20015;-80
2023/06/18 06:43:55;;;;;;;25.60;21.60;;;18.00;99.90;;;;;;6261298;22;20016;-79
2023/06/18 06:46:21;;;;;;;29.23;24.00;;;18.10;99.90;;;;;;6238042;22;20761;-79
2023/06/18 06:48:46;;;;;;;27.38;21.35;;;18.10;99.90;;;;;;6237400;22;20010;-79
2023/06/18 06:51:12;;;;;;;26.52;22.52;;;18.10;99.90;;;;;;6237670;22;20016;-79
2023/06/18 06:53:38;;;;;;;25.15;22.42;;;18.20;99.90;;;;;;6273325;22;20019;-79
2023/06/18 06:56:03;;;;;;;29.15;23.65;;;18.30;99.90;;;;;;6268869;22;20014;-79
2023/06/18 06:58:29;;;;;;;28.40;23.48;;;18.40;99.90;;;;;;6241971;22;20048;-79
2023/06/18 07:00:54;;;;;;;26.55;22.35;;;18.50;99.90;;;;;;6233555;22;20026;-79
2023/06/18 07:03:20;;;;;;;28.38;23.40;;;18.70;99.90;;;;;;6237914;22;20019;-79
2023/06/18 07:05:46;;;;;;;25.80;21.08;;;18.80;99.90;;;;;;6258420;22;20434;-79
2023/06/18 07:08:11;;;;;;;27.17;21.02;;;18.90;99.90;;;;;;6233889;22;20075;-79
2023/06/18 07:10:37;;;;;;;24.52;21.30;;;19.00;99.90;;;;;;6235716;22;20513;-79
2023/06/18 07:13:03;;;;;;;26.60;22.50;;;19.20;99.90;;;;;;6258896;22;20012;-79
2023/06/18 07:15:28;;;;;;;25.80;22.52;;;19.30;99.90;;;;;;6234950;22;20449;-79
2023/06/18 07:17:56;;;;;;;26.05;21.48;;;19.50;99.90;;;;;;6236284;22;20050;-79
2023/06/18 07:20:25;;;;;;;27.65;22.20;;;19.60;99.90;;;;;;6240556;22;20449;-80
2023/06/18 07:22:51;;;;;;;22.88;19.08;;;19.70;99.90;;;;;;6259313;22;20016;-79
2023/06/18 07:25:16;;;;;;;23.48;19.25;;;19.70;99.90;;;;;;6248382;22;20031;-79
2023/06/18 07:27:42;;;;;;;22.73;18.60;;;19.80;99.90;;;;;;6274406;22;20040;-82
2023/06/18 07:30:08;;;;;;;21.33;17.55;;;19.80;99.90;;;;;;6249403;22;20016;-81
2023/06/18 07:32:33;;;;;;;21.50;18.02;;;19.80;99.90;;;;;;6264262;22;20016;-80
2023/06/18 07:34:59;;;;;;;22.75;17.80;;;19.90;99.90;;;;;;6260848;22;20043;-80
2023/06/18 07:37:25;;;;;;;19.98;17.60;;;19.90;99.90;;;;;;6258219;22;20081;-80
2023/06/18 07:39:50;;;;;;;21.17;17.90;;;20.10;99.90;;;;;;6258730;22;20090;-80
2023/06/18 07:42:16;;;;;;;22.90;17.15;;;20.20;99.90;;;;;;6258657;22;20019;-80
2023/06/18 07:44:45;;;;;;;19.45;17.05;;;20.40;99.90;;;;;;6234146;22;20065;-79
2023/06/18 07:47:10;;;;;;;19.42;16.38;;;20.50;99.90;;;;;;6258507;22;20050;-80
2023/06/18 07:49:36;;;;;;;19.77;16.65;;;20.60;99.90;;;;;;6239055;22;20015;-80
2023/06/18 07:52:02;;;;;;;20.15;17.25;;;20.60;99.90;;;;;;6239373;22;20020;-79
2023/06/18 07:54:27;;;;;;;20.08;16.52;;;20.70;99.90;;;;;;6263585;22;20019;-79
2023/06/18 07:56:53;;;;;;;18.20;15.50;;;20.80;99.90;;;;;;6248615;22;20011;-80
2023/06/18 07:59:19;;;;;;;19.33;16.42;;;20.90;99.90;;;;;;6265511;22;20007;-80
2023/06/18 08:01:44;;;;;;;18.25;16.10;;;21.10;99.90;;;;;;6232923;22;20457;-80
2023/06/18 08:04:10;;;;;;;20.13;17.88;;;21.20;99.90;;;;;;6235992;22;20437;-80
2023/06/18 08:06:35;;;;;;;19.55;15.98;;;21.30;99.90;;;;;;6232656;22;20549;-80
2023/06/18 08:09:01;;;;;;;18.40;15.70;;;21.50;99.90;;;;;;6258788;22;20011;-80
2023/06/18 08:11:26;;;;;;;19.20;16.40;;;21.50;99.90;;;;;;6235758;22;20086;-80
2023/06/18 08:13:52;;;;;;;20.33;16.27;;;21.60;99.90;;;;;;6234157;22;20480;-80
2023/06/18 08:16:18;;;;;;;18.73;15.43;;;21.60;99.90;;;;;;6258266;22;20011;-79
2023/06/18 08:18:43;;;;;;;19.48;15.65;;;21.70;99.90;;;;;;6258954;22;20087;-80
2023/06/18 08:21:09;;;;;;;20.88;16.58;;;21.80;99.90;;;;;;6260064;22;20027;-79
2023/06/18 08:23:34;;;;;;;19.38;14.60;;;21.80;99.90;;;;;;6259630;22;20106;-79
2023/06/18 08:26:00;;;;;;;18.05;14.63;;;21.80;99.90;;;;;;6240428;22;20060;-79
2023/06/18 08:28:26;;;;;;;16.88;13.50;;;22.10;99.90;;;;;;6258003;22;20019;-79
2023/06/18 08:30:51;;;;;;;16.05;13.25;;;22.20;99.90;;;;;;6239349;22;20018;-79
2023/06/18 08:33:17;;;;;;;18.50;15.10;;;22.40;99.90;;;;;;6257160;22;20388;-80
2023/06/18 08:35:42;;;;;;;18.33;15.07;;;22.50;99.90;;;;;;6259811;22;20012;-79
2023/06/18 08:38:08;;;;;;;18.60;15.35;;;22.50;99.90;;;;;;6233611;22;20446;-80
2023/06/18 08:40:49;;;;;;;15.85;13.88;;;22.70;99.90;;;;;;6259461;22;20091;-79
2023/06/18 08:43:21;;;;;;;16.20;12.85;;;22.70;99.90;;;;;;6262630;22;20012;-79
2023/06/18 08:45:51;;;;;;;20.15;15.15;;;22.90;99.90;;;;;;6258558;22;20020;-79
2023/06/18 08:48:20;;;;;;;17.27;14.57;;;22.90;99.90;;;;;;6258665;22;20023;-79
2023/06/18 08:50:47;;;;;;;16.90;12.98;;;23.10;99.90;;;;;;6267403;22;20027;-79
2023/06/18 08:53:21;;;;;;;19.23;14.02;;;23.20;99.90;;;;;;6257784;22;20393;-79
2023/06/18 08:55:48;;;;;;;18.13;13.75;;;23.30;99.90;;;;;;6237948;22;20025;-80
2023/06/18 08:58:18;;;;;;;17.38;12.75;;;23.40;99.90;;;;;;6266594;22;20438;-79
2023/06/18 09:00:44;;;;;;;14.93;12.75;;;23.50;99.90;;;;;;6248431;22;20030;-84
2023/06/18 09:03:11;;;;;;;15.73;12.20;;;23.60;99.90;;;;;;6248084;22;20011;-79
2023/06/18 09:05:38;;;;;;;15.90;12.50;;;23.60;99.90;;;;;;6248417;22;20020;-80
2023/06/18 09:08:04;;;;;;;15.40;12.55;;;23.80;99.90;;;;;;6248663;22;20022;-81
2023/06/18 09:10:30;;;;;;;14.40;11.15;;;23.90;99.90;;;;;;6274569;22;20424;-80
2023/06/18 09:12:56;;;;;;;15.45;11.02;;;24.00;99.90;;;;;;6272927;22;20012;-80
2023/06/18 09:15:24;;;;;;;13.23;10.10;;;24.10;99.90;;;;;;6247891;22;20039;-80
2023/06/18 09:17:53;;;;;;;15.90;11.77;;;24.20;99.90;;;;;;6250048;22;20087;-80
2023/06/18 09:20:20;;;;;;;14.40;10.13;;;24.20;99.90;;;;;;6275530;22;20091;-79
2023/06/18 09:22:47;;;;;;;14.20;10.10;;;24.40;99.90;;;;;;6248402;22;20074;-79
2023/06/18 09:25:23;;;;;;;13.65;9.63;;;24.50;99.90;;;;;;6250023;22;20050;-79
2023/06/18 09:27:49;;;;;;;13.07;10.15;;;24.60;99.90;;;;;;6326570;22;20016;-80
2023/06/18 09:30:19;;;;;;;11.75;9.35;;;24.70;99.90;;;;;;6247254;22;20023;-79
2023/06/18 09:32:47;;;;;;;12.80;9.30;;;24.80;99.90;;;;;;6275422;22;20015;-79
2023/06/18 09:35:13;;;;;;;12.23;8.80;;;24.80;99.90;;;;;;6248556;22;20346;-79
2023/06/18 09:37:40;;;;;;;11.48;8.55;;;24.90;99.90;;;;;;6275209;22;20012;-79
2023/06/18 09:40:15;;;;;;;11.48;8.60;;;25.00;99.90;;;;;;6326975;22;20047;-80
2023/06/18 09:42:40;;;;;;;13.65;9.20;;;25.00;99.90;;;;;;6275935;22;20062;-80
2023/06/18 09:45:06;;;;;;;11.82;8.75;;;25.00;99.90;;;;;;6250800;22;20015;-79
2023/06/18 09:47:32;;;;;;;13.40;8.30;;;25.20;99.90;;;;;;6249767;22;20023;-78
2023/06/18 09:49:58;;;;;;;11.18;8.98;;;25.30;99.90;;;;;;6275418;22;20020;-80
2023/06/18 09:52:24;;;;;;;11.15;7.90;;;25.40;99.90;;;;;;6275754;22;20007;-79
2023/06/18 09:54:50;;;;;;;10.02;8.10;;;25.40;99.90;;;;;;6275715;22;20043;-80
2023/06/18 09:57:16;;;;;;;13.07;8.20;;;25.40;99.90;;;;;;6327316;22;20389;-78
2023/06/18 09:59:42;;;;;;;9.25;7.03;;;25.50;99.90;;;;;;6276115;22;20454;-80
2023/06/18 10:02:13;;;;;;;10.48;7.57;;;25.60;99.90;;;;;;6300704;22;20073;-80
2023/06/18 10:04:39;;;;;;;11.52;8.25;;;25.70;99.90;;;;;;6250325;22;20022;-79
2023/06/18 10:07:06;;;;;;;12.13;8.00;;;25.80;99.90;;;;;;6249703;22;20153;-79
2023/06/18 10:09:35;;;;;;;9.75;7.28;;;26.00;95.60;;;;;;6275304;22;20098;-80
2023/06/18 10:12:02;;;;;;;9.85;7.50;;;26.00;98.40;;;;;;6275407;22;20012;-79
2023/06/18 10:14:30;;;;;;;11.18;7.90;;;26.00;97.30;;;;;;6250379;22;20311;-80
2023/06/18 10:17:05;;;;;;;11.07;8.07;;;26.10;98.50;;;;;;6275198;22;20003;-79
2023/06/18 10:19:51;;;;;;;10.02;7.55;;;26.10;96.90;;;;;;6249759;22;20086;-80
2023/06/18 10:22:18;;;;;;;11.13;7.50;;;26.10;95.50;;;;;;6249574;22;20027;-74
2023/06/18 10:24:54;;;;;;;11.32;7.95;;;26.00;96.00;;;;;;6322178;22;20411;-75
2023/06/18 10:27:20;;;;;;;10.55;8.07;;;25.90;96.40;;;;;;6249004;22;20023;-75
2023/06/18 10:29:46;;;;;;;13.23;7.90;;;25.90;96.10;;;;;;6275705;22;20022;-75
2023/06/18 10:32:13;;;;;;;11.68;7.55;;;26.00;96.50;;;;;;6300466;22;20012;-75
2023/06/18 10:34:39;;;;;;;11.10;7.88;;;26.10;96.10;;;;;;6274710;22;20012;-74
2023/06/18 10:37:06;;;;;;;10.52;7.50;;;26.20;94.80;;;;;;6275178;22;20015;-75
2023/06/18 10:39:32;;;;;;;11.10;7.30;;;26.30;94.60;;;;;;6326892;22;20418;-75
2023/06/18 10:42:11;;;;;;;9.50;8.07;;;26.30;95.60;;;;;;6274324;22;20454;-74
2023/06/18 10:44:53;;;;;;;10.88;8.38;;;26.40;95.70;;;;;;6275092;22;20017;-74
2023/06/18 10:47:23;;;;;;;12.70;8.45;;;26.40;95.10;;;;;;6249031;22;20012;-75
2023/06/18 10:50:07;;;;;;;11.30;7.90;;;26.40;94.90;;;;;;6249382;22;20465;-74
2023/06/18 10:52:36;;;;;;;9.32;7.40;;;26.50;93.20;;;;;;6274975;22;20057;-75
2023/06/18 10:55:08;;;;;;;12.10;8.20;;;26.60;94.90;;;;;;6326178;22;20509;-75
2023/06/18 10:57:39;;;;;;;8.77;7.13;;;26.60;94.00;;;;;;6248342;22;20442;-74
2023/06/18 11:00:21;;;;;;;9.93;7.78;;;26.50;94.00;;;;;;6274867;22;20007;-75
2023/06/18 11:02:51;;;;;;;10.02;7.55;;;26.50;93.70;;;;;;6273807;22;20012;-75
2023/06/18 11:05:32;;;;;;;9.95;7.60;;;26.50;92.10;;;;;;6249776;22;20020;-75
2023/06/18 11:08:05;;;;;;;12.27;7.63;;;26.60;93.30;;;;;;6249179;22;20146;-75
2023/06/18 11:10:47;;;;;;;12.10;7.68;;;26.60;93.30;;;;;;6249354;22;20012;-74
2023/06/18 11:13:13;;;;;;;10.20;7.78;;;26.60;91.90;;;;;;6249118;22;20008;-75
2023/06/18 11:15:52;;;;;;;10.18;7.70;;;26.60;92.20;;;;;;6299006;22;20039;-75
2023/06/18 11:18:21;;;;;;;12.18;7.90;;;26.50;92.20;;;;;;6247087;22;20022;-74
2023/06/18 11:20:47;;;;;;;9.02;7.20;;;26.50;92.90;;;;;;6248725;22;20527;-75
2023/06/18 11:23:12;;;;;;;9.68;7.20;;;26.80;90.90;;;;;;6273680;22;20018;-75
2023/06/18 11:25:38;;;;;;;9.93;7.60;;;26.90;91.10;;;;;;6247541;22;20051;-75
2023/06/18 11:28:04;;;;;;;9.77;7.88;;;27.00;91.50;;;;;;6248022;22;20142;-74
2023/06/18 11:30:34;;;;;;;10.82;7.55;;;27.00;88.10;;;;;;6325674;22;20051;-74
2023/06/18 11:33:00;;;;;;;10.35;7.07;;;27.00;90.90;;;;;;6274220;22;20377;-75
2023/06/18 11:35:28;;;;;;;10.35;7.35;;;27.00;91.20;;;;;;6299541;22;20011;-74
2023/06/18 11:37:54;;;;;;;9.55;7.18;;;27.00;91.30;;;;;;6247019;22;20018;-75
2023/06/18 11:40:19;;;;;;;10.73;8.00;;;26.90;90.10;;;;;;6326276;22;20090;-75
2023/06/18 11:42:50;;;;;;;11.30;7.45;;;26.90;89.40;;;;;;6273602;22;20012;-74
2023/06/18 11:45:17;;;;;;;11.70;7.18;;;26.90;90.40;;;;;;6248494;22;20015;-75
2023/06/18 11:47:49;;;;;;;10.10;7.35;;;26.80;90.50;;;;;;6273326;22;20388;-75
2023/06/18 11:50:15;;;;;;;;;;;26.60;88.70;;;;;;6274428;22;20327;-74
2023/06/18 11:52:41;;;;;;;11.95;7.70;;;26.50;89.60;;;;;;6273145;22;19915;-75
2023/06/18 11:55:07;;;;;;;10.40;6.72;;;26.50;91.40;;;;;;6248107;22;20012;-75
2023/06/18 11:57:33;;;;;;;10.70;7.75;;;26.40;89.70;;;;;;6248504;22;20035;-74
2023/06/18 11:59:59;;;;;;;10.18;7.40;;;26.20;86.00;;;;;;6247069;22;20504;-74
2023/06/18 12:02:28;;;;;;;10.02;7.38;;;26.30;90.80;;;;;;6247707;22;20008;-74
2023/06/18 12:05:04;;;;;;;12.27;7.65;;;26.30;89.40;;;;;;6248162;22;20094;-75
2023/06/18 12:07:30;;;;;;;12.45;7.97;;;26.20;91.20;;;;;;6273151;22;20070;-74
2023/06/18 12:10:01;;;;;;;9.88;7.40;;;26.20;92.10;;;;;;6248480;22;20016;-75
2023/06/18 12:12:45;;;;;;;8.63;7.25;;;26.10;91.90;;;;;;6273531;22;20503;-75
2023/06/18 12:15:29;;;;;;;10.93;7.32;;;26.10;91.80;;;;;;6248503;22;20082;-75
2023/06/18 12:18:03;;;;;;;10.05;6.90;;;26.10;90.60;;;;;;6272087;22;20012;-75
2023/06/18 12:20:29;;;;;;;9.63;6.70;;;26.00;90.80;;;;;;6273376;22;20022;-74
2023/06/18 12:23:00;;;;;;;10.77;7.22;;;26.00;91.20;;;;;;6272954;22;20095;-74
2023/06/18 12:25:30;;;;;;;10.80;6.78;;;26.10;89.10;;;;;;6247494;22;20527;-74
2023/06/18 12:27:57;;;;;;;9.73;7.10;;;26.20;88.00;;;;;;6273147;22;20027;-75
2023/06/18 12:30:31;;;;;;;8.30;6.82;;;26.20;90.20;;;;;;6221243;22;20057;-75
2023/06/18 12:33:05;;;;;;;9.02;7.13;;;26.30;90.20;;;;;;6272609;22;20016;-74